Time;durP1;ratioP1;P1;durP2;ratioP2;P2;SDS_P1;SDS_P2;PMS_P1;PMS_P2;Temp;Humidity;BMP_temperature;BMP_pressure;BME280_temperature;BME280_humidity;BME280_pressure;Samples;Min_cycle;Max_cycle;Signal;HPM_P1;HPM_P2
2023/03/27 00:01:36;;;;;;;12.23;4.63;;;;;;;18.44;44.55;98606.03;5094975;28;20046;-66
2023/03/27 00:04:04;;;;;;;10.82;5.00;;;;;;;18.44;44.42;98600.63;5094969;28;20127;-66
2023/03/27 00:06:33;;;;;;;12.43;5.13;;;;;;;18.42;44.74;98598.09;5094881;28;20504;-66
2023/03/27 00:09:03;;;;;;;11.77;4.82;;;;;;;18.42;44.61;98589.16;5094892;28;20464;-66
2023/03/27 00:11:33;;;;;;;13.77;5.45;;;;;;;18.41;44.75;98591.00;5094765;28;20052;-66
2023/03/27 00:14:01;;;;;;;15.40;5.50;;;;;;;18.41;45.19;98587.47;5094839;28;20040;-66
2023/03/27 00:16:29;;;;;;;12.80;5.57;;;;;;;18.39;44.96;98576.88;5094743;28;20044;-66
2023/03/27 00:18:57;;;;;;;12.73;5.05;;;;;;;18.39;45.24;98570.63;5094703;28;20097;-66
2023/03/27 00:21:27;;;;;;;12.32;5.18;;;;;;;18.38;45.25;98571.66;5093626;28;20044;-65
2023/03/27 00:23:55;;;;;;;13.20;4.88;;;;;;;18.36;45.05;98566.44;5094495;28;20404;-65
2023/03/27 00:26:23;;;;;;;11.38;4.88;;;;;;;18.34;45.21;98563.09;5094530;28;20052;-65
2023/03/27 00:28:53;;;;;;;11.25;4.90;;;;;;;18.36;45.34;98557.50;5094386;28;20051;-66
2023/03/27 00:31:21;;;;;;;11.75;4.75;;;;;;;18.34;45.21;98562.25;5094452;28;20388;-66
2023/03/27 00:33:50;;;;;;;11.38;4.53;;;;;;;18.31;45.41;98548.06;5094360;28;20463;-66
2023/03/27 00:36:18;;;;;;;9.55;4.80;;;;;;;18.31;45.50;98556.19;5094440;28;20040;-66
2023/03/27 00:38:46;;;;;;;13.27;5.03;;;;;;;18.32;45.37;98554.31;5094174;28;20052;-66
2023/03/27 00:41:15;;;;;;;13.32;5.40;;;;;;;18.30;45.24;98551.81;5094229;28;20105;-65
2023/03/27 00:43:43;;;;;;;10.25;4.57;;;;;;;18.30;45.56;98543.72;5094200;28;20086;-65
2023/03/27 00:46:31;;;;;;;10.43;4.57;;;;;;;18.28;45.46;98536.81;5094175;28;20534;-65
2023/03/27 00:49:03;;;;;;;13.63;5.22;;;;;;;18.26;45.23;98533.47;5094106;28;20040;-65
2023/03/27 00:51:32;;;;;;;11.10;4.88;;;;;;;18.28;45.49;98534.13;5094008;28;20052;-65
2023/03/27 00:54:01;;;;;;;13.40;5.10;;;;;;;18.25;45.49;98521.84;5094142;28;20097;-65
2023/03/27 00:56:29;;;;;;;9.32;4.18;;;;;;;18.26;45.44;98523.53;5093906;28;20485;-64
2023/03/27 00:59:02;;;;;;;11.05;4.30;;;;;;;18.25;45.66;98521.00;5093875;28;20070;-65
2023/03/27 01:01:32;;;;;;;;;;;;;;;18.24;45.63;98514.78;5094292;28;20082;-65
2023/03/27 01:04:04;;;;;;;10.48;4.47;;;;;;;18.21;45.89;98509.72;5093742;28;19928;-65
2023/03/27 01:06:32;;;;;;;10.57;4.20;;;;;;;18.22;45.79;98500.59;5093804;28;20055;-65
2023/03/27 01:09:00;;;;;;;9.85;4.45;;;;;;;18.22;45.98;98503.28;5093697;28;20073;-67
2023/03/27 01:11:42;;;;;;;10.68;4.43;;;;;;;18.21;45.91;98490.84;5093696;28;20048;-65
2023/03/27 01:14:21;;;;;;;9.52;4.57;;;;;;;18.19;46.08;98484.78;5093671;28;20079;-66
2023/03/27 01:17:07;;;;;;;10.38;4.47;;;;;;;18.19;46.30;98468.59;5093595;28;20043;-66
2023/03/27 01:19:59;;;;;;;10.65;4.00;;;;;;;18.19;46.22;98467.75;5093610;28;20071;-64
2023/03/27 01:23:10;;;;;;;8.57;4.13;;;;;;;18.18;45.93;98471.47;5093866;28;20052;-65
2023/03/27 01:26:18;;;;;;;11.77;3.85;;;;;;;18.18;45.93;98466.91;5073535;28;20129;-65
2023/03/27 01:29:10;;;;;;;9.05;3.88;;;;;;;18.16;45.98;98460.03;5072867;28;20424;-66
2023/03/27 01:31:52;;;;;;;11.23;4.70;;;;;;;18.15;45.97;98461.91;5073261;28;20045;-66
2023/03/27 01:34:49;;;;;;;8.50;3.78;;;;;;;18.14;46.07;98454.81;5072982;28;20140;-66
2023/03/27 01:38:02;;;;;;;11.15;4.05;;;;;;;18.12;46.42;98456.84;5072964;28;20457;-66
2023/03/27 01:40:36;;;;;;;9.48;4.03;;;;;;;18.12;46.20;98454.16;5067542;28;20053;-66
2023/03/27 01:43:09;;;;;;;10.13;3.85;;;;;;;18.12;46.17;98453.31;5072761;28;20052;-67
2023/03/27 01:45:43;;;;;;;9.20;4.13;;;;;;;18.12;46.19;98453.31;5072664;28;20041;-67
2023/03/27 01:48:16;;;;;;;10.77;3.72;;;;;;;18.07;46.43;98443.09;5072629;28;20048;-66
2023/03/27 01:50:47;;;;;;;8.57;3.80;;;;;;;18.08;46.23;98450.16;5072781;28;20047;-66
2023/03/27 01:53:20;;;;;;;9.00;3.83;;;;;;;18.08;46.58;98447.47;5072562;28;20050;-65
2023/03/27 01:55:57;;;;;;;9.00;3.50;;;;;;;18.08;46.50;98444.75;5072571;28;20713;-67
2023/03/27 01:58:29;;;;;;;10.48;4.20;;;;;;;18.07;46.50;98440.41;5072407;28;20041;-66
2023/03/27 02:01:01;;;;;;;11.15;3.95;;;;;;;18.06;46.43;98441.41;5072593;28;20401;-65
2023/03/27 02:03:34;;;;;;;8.80;3.83;;;;;;;18.07;46.58;98436.84;5072329;28;20098;-65
2023/03/27 02:06:06;;;;;;;10.10;4.07;;;;;;;18.04;46.77;98432.66;5072421;28;20044;-65
2023/03/27 02:08:40;;;;;;;8.27;3.60;;;;;;;18.06;46.45;98435.19;5072222;28;20205;-65
2023/03/27 02:11:09;;;;;;;9.70;4.20;;;;;;;18.05;46.56;98438.88;5072303;28;20119;-65
2023/03/27 02:13:43;;;;;;;7.13;3.30;;;;;;;18.04;46.76;98438.03;5072119;28;20094;-64
2023/03/27 02:16:17;;;;;;;9.77;3.90;;;;;;;18.03;46.76;98434.50;5072121;28;20044;-65
2023/03/27 02:18:55;;;;;;;9.73;3.97;;;;;;;18.02;46.97;98445.50;5072741;28;20055;-65
2023/03/27 02:21:24;;;;;;;8.50;3.50;;;;;;;18.01;46.83;98438.41;5072109;28;20044;-65
2023/03/27 02:23:52;;;;;;;7.85;3.50;;;;;;;18.01;46.83;98433.03;5072034;28;20049;-65
2023/03/27 02:26:21;;;;;;;8.75;3.85;;;;;;;18.00;46.51;98436.75;5072122;28;20119;-65
2023/03/27 02:29:02;;;;;;;7.35;3.42;;;;;;;17.97;46.66;98432.56;5071920;28;20044;-66
2023/03/27 02:31:48;;;;;;;11.38;3.50;;;;;;;17.97;46.70;98418.25;5072032;28;20055;-66
2023/03/27 02:34:38;;;;;;;8.38;3.60;;;;;;;17.98;46.72;98409.97;5071915;28;20123;-64
2023/03/27 02:37:16;;;;;;;7.68;3.65;;;;;;;17.99;46.89;98394.63;5069118;28;20428;-64
2023/03/27 02:39:55;;;;;;;7.32;3.53;;;;;;;17.97;46.81;98388.56;5071719;28;20045;-66
2023/03/27 02:42:32;;;;;;;7.38;3.70;;;;;;;17.98;47.04;98376.75;5071756;28;20052;-65
2023/03/27 02:45:06;;;;;;;8.40;3.22;;;;;;;17.96;47.16;98365.31;5071520;28;20093;-64
2023/03/27 02:47:40;;;;;;;10.65;3.90;;;;;;;17.96;47.08;98365.31;5071849;28;20045;-65
2023/03/27 02:50:14;;;;;;;9.50;3.45;;;;;;;17.95;46.92;98358.22;5071661;28;20083;-65
2023/03/27 02:52:46;;;;;;;8.40;2.92;;;;;;;17.95;47.10;98359.09;5071625;28;20072;-65
2023/03/27 02:55:18;;;;;;;9.10;3.08;;;;;;;17.93;47.07;98353.03;5071893;28;20619;-65
2023/03/27 02:57:55;;;;;;;7.07;3.30;;;;;;;17.92;47.09;98348.66;5071635;28;20129;-66
2023/03/27 03:00:27;;;;;;;10.38;3.58;;;;;;;17.93;47.03;98352.19;5071702;28;20071;-66
2023/03/27 03:03:05;;;;;;;6.82;3.17;;;;;;;17.92;47.08;98347.81;5071551;28;20071;-66
2023/03/27 03:05:36;;;;;;;7.65;3.58;;;;;;;17.92;47.15;98342.41;5071656;28;20071;-65
2023/03/27 03:08:08;;;;;;;8.10;3.30;;;;;;;17.91;47.06;98332.66;5071828;28;20040;-65
2023/03/27 03:10:43;;;;;;;7.65;3.17;;;;;;;17.91;46.94;98329.97;5071461;28;20054;-65
2023/03/27 03:13:13;;;;;;;6.32;2.95;;;;;;;17.90;47.26;98330.97;5071565;28;20048;-65
2023/03/27 03:15:41;;;;;;;7.55;3.42;;;;;;;17.90;47.12;98328.28;5071465;28;20055;-66
2023/03/27 03:18:09;;;;;;;7.70;3.10;;;;;;;17.89;47.21;98337.41;5071411;28;20049;-65
2023/03/27 03:20:37;;;;;;;7.57;3.40;;;;;;;17.89;47.19;98332.00;5071667;28;20040;-65
2023/03/27 03:23:05;;;;;;;7.32;3.13;;;;;;;17.89;47.31;98337.41;5071408;28;20082;-65
2023/03/27 03:25:34;;;;;;;7.47;3.10;;;;;;;17.87;47.12;98334.06;5071419;28;20119;-65
2023/03/27 03:28:06;;;;;;;6.60;3.28;;;;;;;17.86;47.15;98327.84;5071698;28;20040;-65
2023/03/27 03:30:37;;;;;;;6.75;2.97;;;;;;;17.86;47.27;98327.84;5071369;28;20048;-65
2023/03/27 03:33:06;;;;;;;6.93;3.08;;;;;;;17.83;47.27;98328.19;5071414;28;20501;-66
2023/03/27 03:35:34;;;;;;;7.82;3.15;;;;;;;17.85;47.32;98325.28;5071553;28;20051;-65
2023/03/27 03:38:02;;;;;;;7.15;2.90;;;;;;;17.85;47.25;98323.44;5071336;28;20041;-64
2023/03/27 03:40:31;;;;;;;6.93;2.80;;;;;;;17.85;47.26;98330.69;5070985;28;20086;-66
2023/03/27 03:42:59;;;;;;;6.75;2.88;;;;;;;17.82;47.46;98325.66;5071183;28;20060;-65
2023/03/27 03:45:27;;;;;;;6.72;2.83;;;;;;;17.82;47.27;98323.81;5071281;28;20052;-65
2023/03/27 03:47:57;;;;;;;6.97;3.22;;;;;;;17.81;47.25;98321.31;5071413;28;20101;-64
2023/03/27 03:50:26;;;;;;;6.03;2.85;;;;;;;17.83;47.42;98322.78;5071084;28;20048;-65
2023/03/27 03:52:55;;;;;;;7.45;2.90;;;;;;;17.81;47.38;98324.00;5071124;28;20043;-64
2023/03/27 03:55:24;;;;;;;8.13;3.28;;;;;;;17.81;47.59;98322.13;5073384;28;20136;-66
2023/03/27 03:57:52;;;;;;;6.80;3.17;;;;;;;17.79;47.52;98316.09;5074772;28;20044;-64
2023/03/27 04:00:21;;;;;;;7.32;3.20;;;;;;;17.80;47.59;98322.34;5074650;28;20051;-64
2023/03/27 04:02:52;;;;;;;6.22;2.90;;;;;;;17.79;47.45;98316.09;5074728;28;20420;-65
2023/03/27 04:05:21;;;;;;;7.47;3.00;;;;;;;17.77;47.36;98307.38;5074844;28;20040;-65
2023/03/27 04:07:50;;;;;;;6.47;3.17;;;;;;;17.77;47.85;98307.38;5074576;28;20063;-64
2023/03/27 04:10:18;;;;;;;5.93;2.60;;;;;;;17.78;47.44;98311.72;5074590;28;20447;-64
2023/03/27 04:12:47;;;;;;;6.68;2.70;;;;;;;17.77;47.60;98306.53;5074555;28;20054;-64
2023/03/27 04:15:16;;;;;;;7.60;3.03;;;;;;;17.76;47.62;98307.53;5074668;28;20115;-64
2023/03/27 04:17:44;;;;;;;6.53;2.85;;;;;;;17.77;47.82;98311.94;5074503;28;20075;-65
2023/03/27 04:20:13;;;;;;;6.82;3.10;;;;;;;17.76;47.68;98310.22;5074367;28;20132;-65
2023/03/27 04:22:45;;;;;;;7.22;3.00;;;;;;;17.74;47.61;98313.09;5074237;28;20094;-64
2023/03/27 04:25:16;;;;;;;6.72;3.15;;;;;;;17.73;47.70;98306.88;5074478;28;20076;-64
2023/03/27 04:27:44;;;;;;;5.65;2.78;;;;;;;17.72;47.69;98310.59;5074189;28;20497;-65
2023/03/27 04:30:23;;;;;;;5.35;2.80;;;;;;;17.74;47.55;98313.94;5074105;28;20398;-65
2023/03/27 04:32:58;;;;;;;7.43;2.95;;;;;;;17.74;47.65;98308.56;5073992;28;20045;-64
2023/03/27 04:35:27;;;;;;;5.68;2.92;;;;;;;17.73;47.57;98308.75;5074299;28;20045;-64
2023/03/27 04:37:56;;;;;;;7.47;2.90;;;;;;;17.73;47.70;98312.28;5074189;28;20048;-63
2023/03/27 04:40:25;;;;;;;6.63;2.83;;;;;;;17.73;47.88;98314.13;5073954;28;20056;-65
2023/03/27 04:42:54;;;;;;;6.13;2.83;;;;;;;17.71;47.71;98306.22;5073957;28;20045;-65
2023/03/27 04:45:24;;;;;;;5.20;2.55;;;;;;;17.71;47.82;98308.94;5073903;28;20090;-65
2023/03/27 04:47:53;;;;;;;5.63;2.80;;;;;;;17.72;47.83;98305.22;5073816;28;20045;-65
2023/03/27 04:50:21;;;;;;;5.82;2.70;;;;;;;17.70;47.77;98296.47;5073752;28;20055;-66
2023/03/27 04:52:50;;;;;;;5.80;2.80;;;;;;;17.70;47.90;98301.88;5073755;28;20119;-65
2023/03/27 04:55:24;;;;;;;7.15;2.88;;;;;;;17.67;47.68;98302.22;5073686;28;20045;-64
2023/03/27 04:57:52;;;;;;;4.72;2.45;;;;;;;17.68;47.96;98301.19;5073634;28;20146;-65
2023/03/27 05:00:22;;;;;;;4.85;2.70;;;;;;;17.69;47.90;98293.94;5073685;28;20049;-64
2023/03/27 05:02:53;;;;;;;5.05;2.53;;;;;;;17.68;48.00;98298.50;5073715;28;20044;-64
2023/03/27 05:05:22;;;;;;;6.45;2.72;;;;;;;17.67;48.06;98296.81;5073786;28;20044;-64
2023/03/27 05:07:52;;;;;;;5.40;2.67;;;;;;;17.66;47.88;98283.50;5072716;28;20044;-65
2023/03/27 05:10:23;;;;;;;7.25;2.30;;;;;;;17.65;48.13;98282.66;5073225;28;20127;-65
2023/03/27 05:12:53;;;;;;;5.40;2.55;;;;;;;17.66;47.83;98278.97;5073280;28;20583;-63
2023/03/27 05:15:25;;;;;;;5.85;2.53;;;;;;;17.67;47.78;98280.66;5073143;28;20048;-63
2023/03/27 05:17:53;;;;;;;5.32;2.88;;;;;;;17.65;48.07;98282.66;5073208;28;20045;-63
2023/03/27 05:20:22;;;;;;;5.35;2.55;;;;;;;17.66;47.94;98268.19;5073173;28;20493;-63
2023/03/27 05:22:53;;;;;;;5.93;2.80;;;;;;;17.65;48.16;98271.88;5073015;28;20098;-64
2023/03/27 05:25:23;;;;;;;6.50;2.75;;;;;;;17.64;48.08;98274.75;5073166;28;20076;-65
2023/03/27 05:27:52;;;;;;;5.22;2.70;;;;;;;17.64;47.91;98275.59;5072801;28;20048;-65
2023/03/27 05:30:23;;;;;;;5.13;2.70;;;;;;;17.64;48.15;98275.59;5072864;28;20052;-65
2023/03/27 05:32:53;;;;;;;4.93;2.45;;;;;;;17.63;47.75;98273.94;5072707;28;20090;-65
2023/03/27 05:35:23;;;;;;;5.50;2.40;;;;;;;17.61;48.15;98265.19;5072620;28;20106;-65
2023/03/27 05:37:53;;;;;;;5.75;2.53;;;;;;;17.63;48.10;98267.72;5072484;28;20143;-65
2023/03/27 05:40:25;;;;;;;5.30;2.38;;;;;;;17.62;47.94;98264.19;5072509;28;20075;-66
2023/03/27 05:42:55;;;;;;;5.65;2.63;;;;;;;17.61;48.38;98265.19;5072450;28;20508;-66
2023/03/27 05:45:23;;;;;;;4.50;2.15;;;;;;;17.60;48.27;98255.44;5072150;28;20078;-66
2023/03/27 05:47:54;;;;;;;5.75;2.53;;;;;;;17.61;48.60;98254.41;5072477;28;20052;-66
2023/03/27 05:50:28;;;;;;;5.03;2.35;;;;;;;17.61;48.38;98254.41;5072389;28;20160;-66
2023/03/27 05:52:57;;;;;;;5.88;2.47;;;;;;;17.61;48.63;98249.03;5072519;28;20478;-65
2023/03/27 05:55:26;;;;;;;5.18;2.10;;;;;;;17.61;48.63;98248.19;5072538;28;20159;-66
2023/03/27 05:57:55;;;;;;;4.95;2.30;;;;;;;17.61;48.78;98253.59;5072251;28;20090;-66
2023/03/27 06:00:25;;;;;;;6.60;2.35;;;;;;;17.60;48.85;98241.97;5072442;28;20055;-67
2023/03/27 06:02:55;;;;;;;5.85;2.50;;;;;;;17.61;48.87;98243.63;5072158;28;20056;-65
2023/03/27 06:05:25;;;;;;;5.55;2.58;;;;;;;17.60;48.96;98244.66;5072470;28;20058;-65
2023/03/27 06:07:54;;;;;;;5.22;2.47;;;;;;;17.59;48.96;98240.28;5072621;28;20048;-66
2023/03/27 06:10:22;;;;;;;6.53;2.35;;;;;;;17.60;48.92;98239.25;5072374;28;20056;-66
2023/03/27 06:13:00;;;;;;;5.25;2.50;;;;;;;17.59;49.17;98239.47;5071972;28;20070;-67
2023/03/27 06:15:28;;;;;;;6.57;2.17;;;;;;;17.58;49.38;98238.63;5072023;28;20041;-67
2023/03/27 06:17:57;;;;;;;5.75;2.70;;;;;;;17.59;49.04;98232.22;5071041;28;20044;-67
2023/03/27 06:20:28;;;;;;;5.45;2.20;;;;;;;17.57;49.18;98231.56;5072041;28;20119;-65
2023/03/27 06:22:59;;;;;;;3.65;1.90;;;;;;;17.56;49.26;98229.84;5071925;28;20044;-67
2023/03/27 06:25:30;;;;;;;5.13;2.28;;;;;;;17.57;49.08;98234.25;5071878;28;20515;-67
2023/03/27 06:28:00;;;;;;;5.20;2.20;;;;;;;17.56;49.31;98232.56;5071670;28;20040;-66
2023/03/27 06:30:30;;;;;;;4.88;2.13;;;;;;;17.57;49.21;98236.13;5071837;28;20045;-67
2023/03/27 06:32:59;;;;;;;6.25;2.20;;;;;;;17.57;49.49;98231.56;5071763;28;20056;-66
2023/03/27 06:35:29;;;;;;;7.18;2.10;;;;;;;17.56;49.48;98229.84;5071385;28;20056;-67
2023/03/27 06:37:58;;;;;;;5.22;2.30;;;;;;;17.55;49.40;98228.19;5071568;28;20051;-66
2023/03/27 06:40:30;;;;;;;7.78;2.20;;;;;;;17.56;49.48;98227.16;5103697;28;20060;-66
2023/03/27 06:43:01;;;;;;;5.07;2.42;;;;;;;17.55;49.64;98221.97;5071889;28;20147;-67
2023/03/27 06:45:32;;;;;;;4.72;1.90;;;;;;;17.56;49.27;98232.56;5071744;28;20554;-66
2023/03/27 06:48:02;;;;;;;6.38;2.30;;;;;;;17.56;49.62;98232.56;5071723;28;20083;-66
2023/03/27 06:50:48;;;;;;;5.28;2.45;;;;;;;17.56;49.41;98229.03;5071525;28;20586;-65
2023/03/27 06:53:17;;;;;;;9.57;2.38;;;;;;;17.56;49.50;98235.25;5071480;28;20464;-65
2023/03/27 06:55:49;;;;;;;6.90;2.40;;;;;;;17.55;49.68;98228.19;5071420;28;20044;-65
2023/03/27 06:58:18;;;;;;;4.57;1.95;;;;;;;17.55;49.79;98230.88;5071518;28;20045;-65
2023/03/27 07:00:48;;;;;;;7.13;2.10;;;;;;;17.53;49.85;98219.47;5071376;28;20040;-65
2023/03/27 07:03:17;;;;;;;9.75;2.08;;;;;;;17.55;49.65;98228.19;5071401;28;20055;-65
2023/03/27 07:05:47;;;;;;;5.32;2.30;;;;;;;17.53;49.84;98222.16;5071382;28;20054;-64
2023/03/27 07:08:18;;;;;;;4.38;2.03;;;;;;;17.49;49.55;98220.03;5071337;28;20041;-65
2023/03/27 07:10:52;;;;;;;4.22;2.00;;;;;;;17.54;49.82;98225.69;5071371;28;20186;-66
2023/03/27 07:13:40;;;;;;;6.10;2.05;;;;;;;17.53;49.91;98232.94;5071270;28;20044;-65
2023/03/27 07:16:10;;;;;;;4.28;2.03;;;;;;;17.44;49.84;98220.56;5071295;28;20049;-65
2023/03/27 07:18:38;;;;;;;6.63;2.13;;;;;;;17.52;49.74;98239.34;5071379;28;20482;-65
2023/03/27 07:21:07;;;;;;;5.13;1.90;;;;;;;17.50;49.56;98241.41;5071543;28;20044;-65
2023/03/27 07:23:35;;;;;;;6.68;2.10;;;;;;;17.52;49.59;98250.13;5071434;28;20045;-65
2023/03/27 07:26:04;;;;;;;5.50;2.03;;;;;;;17.50;49.69;98252.19;5071181;28;20117;-65
2023/03/27 07:28:32;;;;;;;4.50;1.90;;;;;;;17.51;49.73;98248.47;5071265;28;20048;-65
2023/03/27 07:31:07;;;;;;;5.63;1.80;;;;;;;17.53;49.85;98251.81;5074447;28;20041;-64
2023/03/27 07:33:52;;;;;;;5.50;1.90;;;;;;;17.51;49.67;98243.06;5074856;28;20059;-65
2023/03/27 07:36:27;;;;;;;7.05;1.95;;;;;;;17.49;49.71;98239.72;5075150;28;20041;-65
2023/03/27 07:38:55;;;;;;;4.80;1.98;;;;;;;17.51;49.84;98245.78;5074839;28;20052;-66
2023/03/27 07:41:23;;;;;;;7.68;2.00;;;;;;;17.49;49.83;98239.72;5075061;28;20082;-66
2023/03/27 07:43:51;;;;;;;6.97;2.00;;;;;;;17.50;49.82;98244.09;5074966;28;20044;-65
2023/03/27 07:46:22;;;;;;;8.15;1.98;;;;;;;17.48;49.85;98251.53;5074951;28;20408;-65
2023/03/27 07:48:51;;;;;;;5.00;2.25;;;;;;;17.49;49.71;98258.59;5074976;28;20048;-66
2023/03/27 07:51:19;;;;;;;5.40;1.90;;;;;;;17.49;49.77;98250.50;5074618;28;20872;-65
2023/03/27 07:53:52;;;;;;;4.80;2.13;;;;;;;17.47;49.81;98257.94;5074760;28;20071;-66
2023/03/27 07:56:22;;;;;;;5.97;2.00;;;;;;;17.48;49.77;98265.00;5074664;28;20079;-66
2023/03/27 07:58:51;;;;;;;6.25;2.20;;;;;;;17.47;49.94;98255.25;5074550;28;20123;-66
2023/03/27 08:01:21;;;;;;;5.15;2.03;;;;;;;17.48;49.67;98256.94;5074637;28;20053;-65
2023/03/27 08:03:50;;;;;;;4.25;1.73;;;;;;;17.48;49.82;98265.00;5074470;28;20490;-65
2023/03/27 08:06:19;;;;;;;6.82;2.00;;;;;;;17.46;49.87;98256.25;5074647;28;20086;-64
2023/03/27 08:08:49;;;;;;;5.18;1.83;;;;;;;17.46;49.75;98250.84;5074427;28;20041;-64
2023/03/27 08:11:18;;;;;;;4.35;2.00;;;;;;;17.44;49.59;98252.91;5074426;28;20045;-64
2023/03/27 08:13:58;;;;;;;5.38;2.25;;;;;;;17.42;49.74;98238.78;5074710;28;20044;-65
2023/03/27 08:16:28;;;;;;;3.72;1.60;;;;;;;17.45;49.65;98243.78;5074389;28;20068;-65
2023/03/27 08:18:58;;;;;;;5.38;1.70;;;;;;;17.45;49.75;98254.56;5074302;28;20075;-66
2023/03/27 08:21:27;;;;;;;5.40;1.75;;;;;;;17.45;49.72;98257.28;5074366;28;20525;-66
2023/03/27 08:23:57;;;;;;;4.68;1.65;;;;;;;17.45;49.75;98259.97;5074482;28;20040;-66
2023/03/27 08:26:26;;;;;;;4.65;1.90;;;;;;;17.44;49.76;98263.69;5074294;28;20044;-66
2023/03/27 08:28:55;;;;;;;4.97;2.00;;;;;;;17.43;49.86;98264.72;5074084;28;20044;-67
2023/03/27 08:31:24;;;;;;;4.13;2.10;;;;;;;17.43;49.77;98278.19;5073906;28;20506;-65
2023/03/27 08:33:54;;;;;;;3.80;1.80;;;;;;;17.43;49.82;98270.09;5073654;28;20496;-66
2023/03/27 08:36:22;;;;;;;4.53;1.80;;;;;;;17.42;49.71;98271.13;5073908;28;20397;-65
2023/03/27 08:38:50;;;;;;;4.25;1.60;;;;;;;17.42;49.91;98277.34;5073643;28;20056;-66
2023/03/27 08:41:29;;;;;;;3.60;1.75;;;;;;;17.41;49.99;98275.69;5072771;28;20044;-65
2023/03/27 08:44:02;;;;;;;4.18;1.73;;;;;;;17.41;49.93;98275.69;5073748;28;20051;-65
2023/03/27 08:46:36;;;;;;;3.05;1.67;;;;;;;17.40;49.94;98281.25;5073871;28;20394;-66
2023/03/27 08:49:13;;;;;;;3.90;1.63;;;;;;;17.38;49.88;98275.22;5073750;28;20443;-66
2023/03/27 08:51:47;;;;;;;5.32;1.80;;;;;;;17.39;49.78;98287.69;5073743;28;20083;-65
2023/03/27 08:54:18;;;;;;;3.80;1.88;;;;;;;17.40;49.86;98289.34;5073448;28;20048;-65
2023/03/27 08:56:47;;;;;;;5.30;1.70;;;;;;;17.38;49.69;98286.00;5073589;28;20048;-66
2023/03/27 08:59:18;;;;;;;3.95;1.95;;;;;;;17.39;49.79;98293.06;5073818;28;20045;-65
2023/03/27 09:01:53;;;;;;;6.35;1.83;;;;;;;17.38;49.79;98294.09;5073544;28;20048;-65
2023/03/27 09:04:36;;;;;;;3.95;1.70;;;;;;;17.37;49.98;98290.56;5073625;28;20188;-65
2023/03/27 09:07:10;;;;;;;4.13;1.73;;;;;;;17.37;49.87;98295.09;5073337;28;20056;-65
2023/03/27 09:09:51;;;;;;;3.90;1.52;;;;;;;17.36;49.96;98290.72;5073175;28;20477;-65
2023/03/27 09:12:32;;;;;;;4.82;1.70;;;;;;;17.36;49.84;98304.19;5073011;28;20072;-65
2023/03/27 09:15:08;;;;;;;4.97;1.63;;;;;;;17.36;49.81;98298.78;5073269;28;20527;-65
2023/03/27 09:17:41;;;;;;;4.40;1.38;;;;;;;17.34;49.72;98303.53;5073224;28;20055;-65
2023/03/27 09:20:17;;;;;;;4.28;1.50;;;;;;;17.34;49.91;98298.97;5072946;28;20189;-65
2023/03/27 09:22:51;;;;;;;3.00;1.48;;;;;;;17.34;49.68;98308.94;5072922;28;20052;-65
2023/03/27 09:25:26;;;;;;;6.68;1.67;;;;;;;17.32;49.75;98303.72;5105777;28;20083;-64
2023/03/27 09:27:55;;;;;;;4.15;1.60;;;;;;;17.30;49.68;98302.25;5072780;28;20078;-65
2023/03/27 09:30:28;;;;;;;3.70;1.70;;;;;;;17.32;49.72;98311.81;5072599;28;20106;-64
2023/03/27 09:32:59;;;;;;;2.92;1.58;;;;;;;17.32;49.93;98313.66;5072365;28;20460;-64
2023/03/27 09:35:29;;;;;;;4.03;1.67;;;;;;;17.32;49.74;98316.38;5072614;28;20106;-64
2023/03/27 09:38:02;;;;;;;5.05;1.80;;;;;;;17.30;49.63;98316.56;5072981;28;20541;-64
2023/03/27 09:40:42;;;;;;;4.25;1.70;;;;;;;17.31;49.75;98325.47;5072522;28;20063;-64
2023/03/27 09:43:17;;;;;;;3.30;1.40;;;;;;;17.28;49.93;98317.75;5072499;28;20045;-64
2023/03/27 09:45:48;;;;;;;3.83;1.83;;;;;;;17.30;50.02;98329.19;5072443;28;20393;-65
2023/03/27 09:48:27;;;;;;;3.45;1.67;;;;;;;17.30;50.09;98332.72;5072283;28;20044;-65
2023/03/27 09:50:57;;;;;;;3.55;1.60;;;;;;;17.28;49.73;98328.53;5072536;28;20074;-64
2023/03/27 09:53:26;;;;;;;3.65;1.90;;;;;;;17.30;50.01;98348.03;5072168;28;20052;-66
2023/03/27 09:55:57;;;;;;;3.17;1.52;;;;;;;17.28;49.84;98350.09;5072429;28;20045;-65
2023/03/27 09:58:33;;;;;;;;;;;;;;;17.28;49.91;98344.69;5073047;28;20037;-65
2023/03/27 10:01:12;;;;;;;3.80;1.67;;;;;;;17.27;49.85;98353.78;5072483;28;19920;-65
2023/03/27 10:03:42;;;;;;;4.55;1.83;;;;;;;17.27;49.95;98349.22;5072145;28;20100;-65
2023/03/27 10:06:16;;;;;;;3.83;1.70;;;;;;;17.27;50.05;98353.78;5072239;28;20046;-65
2023/03/27 10:08:48;;;;;;;3.42;1.60;;;;;;;17.25;49.93;98358.50;5072354;28;20055;-65
2023/03/27 10:11:19;;;;;;;3.90;1.80;;;;;;;17.24;49.82;98359.53;5072291;28;20083;-64
2023/03/27 10:13:49;;;;;;;3.83;1.55;;;;;;;17.25;49.89;98361.22;5072051;28;20629;-64
2023/03/27 10:16:20;;;;;;;2.88;1.52;;;;;;;17.25;50.00;98358.50;5072090;28;20135;-64
2023/03/27 10:18:51;;;;;;;3.78;1.70;;;;;;;17.23;50.05;98357.88;5072127;28;20060;-65
2023/03/27 10:21:27;;;;;;;4.55;1.42;;;;;;;17.23;49.90;98352.47;5072032;28;20041;-64
2023/03/27 10:24:05;;;;;;;3.17;1.40;;;;;;;17.22;50.05;98356.19;5071911;28;20508;-64
2023/03/27 10:26:36;;;;;;;3.17;1.50;;;;;;;17.21;49.97;98358.06;5072095;28;20071;-64
2023/03/27 10:29:21;;;;;;;2.83;1.75;;;;;;;17.23;50.10;98357.88;5072090;28;20048;-63
2023/03/27 10:31:51;;;;;;;3.05;1.40;;;;;;;17.22;50.05;98362.41;5071804;28;20127;-64
2023/03/27 10:34:38;;;;;;;2.38;1.20;;;;;;;17.21;50.11;98365.28;5071728;28;20072;-64
2023/03/27 10:37:26;;;;;;;3.97;1.77;;;;;;;17.21;50.07;98373.38;5071831;28;20048;-65
2023/03/27 10:39:57;;;;;;;3.47;1.50;;;;;;;17.20;49.97;98366.31;5071446;28;20463;-63
2023/03/27 10:42:32;;;;;;;3.40;1.45;;;;;;;17.16;50.12;98373.91;5071446;28;20140;-64
2023/03/27 10:45:00;;;;;;;2.78;1.40;;;;;;;17.17;50.02;98376.41;5071546;28;20075;-64
2023/03/27 10:47:33;;;;;;;3.55;1.50;;;;;;;17.19;50.05;98376.25;5071482;28;20045;-64
2023/03/27 10:50:10;;;;;;;3.50;1.60;;;;;;;17.17;49.92;98381.78;5071557;28;20481;-64
2023/03/27 10:52:54;;;;;;;3.58;1.60;;;;;;;17.17;50.14;98370.19;5071362;28;20044;-64
2023/03/27 10:55:35;;;;;;;3.17;1.60;;;;;;;17.17;49.94;98381.78;5071624;28;20102;-66
2023/03/27 10:58:13;;;;;;;2.83;1.40;;;;;;;17.17;49.99;98381.78;5103762;28;20040;-65
2023/03/27 11:00:51;;;;;;;3.40;1.33;;;;;;;17.17;50.02;98384.50;5071620;28;20072;-66
2023/03/27 11:03:27;;;;;;;4.80;1.60;;;;;;;17.16;49.96;98380.13;5071594;28;20072;-64
2023/03/27 11:05:58;;;;;;;3.53;1.63;;;;;;;17.16;50.09;98388.22;5071212;28;20044;-64
2023/03/27 11:08:34;;;;;;;2.38;1.30;;;;;;;17.15;49.92;98389.22;5071656;28;20048;-64
2023/03/27 11:11:13;;;;;;;3.50;1.40;;;;;;;17.15;49.92;98394.63;5071604;28;20041;-63
2023/03/27 11:13:44;;;;;;;3.30;1.60;;;;;;;17.13;50.11;98393.97;5071441;28;20049;-63
2023/03/27 11:16:18;;;;;;;3.25;1.38;;;;;;;17.14;50.01;98386.72;5071385;28;20520;-63
2023/03/27 11:18:55;;;;;;;2.97;1.25;;;;;;;17.13;49.93;98393.97;5071314;28;20131;-65
2023/03/27 11:21:29;;;;;;;1.92;1.20;;;;;;;17.10;50.01;98397.03;5071507;28;20862;-64
2023/03/27 11:24:00;;;;;;;3.10;1.50;;;;;;;17.12;49.88;98394.97;5071409;28;20048;-63
2023/03/27 11:26:36;;;;;;;2.38;1.23;;;;;;;17.13;50.09;98393.97;5071492;28;20079;-64
2023/03/27 11:29:08;;;;;;;3.00;1.45;;;;;;;17.11;50.22;98398.69;5071328;28;20048;-64
2023/03/27 11:31:44;;;;;;;2.72;1.42;;;;;;;17.12;50.20;98405.75;5071381;28;20406;-64
2023/03/27 11:34:18;;;;;;;2.80;1.40;;;;;;;17.11;50.15;98398.69;5070949;28;20139;-64
2023/03/27 11:37:01;;;;;;;3.03;1.50;;;;;;;17.10;50.08;98396.19;5071270;28;20044;-64
2023/03/27 11:39:35;;;;;;;;;;;;;;;17.11;50.25;98401.38;5071496;28;20067;-64
2023/03/27 11:42:13;;;;;;;3.10;1.30;;;;;;;17.11;50.02;98401.38;5071119;28;20369;-63
2023/03/27 11:44:42;;;;;;;3.95;1.50;;;;;;;17.10;50.01;98407.78;5071144;28;20064;-65
2023/03/27 11:47:32;;;;;;;3.40;1.40;;;;;;;17.10;50.05;98407.78;5070977;28;20440;-64
2023/03/27 11:50:22;;;;;;;3.15;1.30;;;;;;;17.09;50.12;98400.75;5070676;28;20040;-66
2023/03/27 11:53:04;;;;;;;3.25;1.40;;;;;;;17.08;50.03;98403.59;5070967;28;20438;-65
2023/03/27 11:55:45;;;;;;;2.55;1.33;;;;;;;17.09;50.13;98405.28;5070817;28;20049;-65
2023/03/27 11:58:25;;;;;;;3.20;1.38;;;;;;;17.08;50.14;98409.84;5070785;28;20489;-65
2023/03/27 12:01:00;;;;;;;2.30;1.23;;;;;;;17.07;50.19;98402.75;5070856;28;20424;-65